createdAt,value
2019-02-20T00:01:43.978Z,64.58
2019-02-20T00:04:11.468Z,64.89
2019-02-20T00:06:38.878Z,65.25
2019-02-20T00:09:06.997Z,65.53
2019-02-20T00:11:34.428Z,65.41
2019-02-20T00:14:01.871Z,65.24
2019-02-20T00:16:29.280Z,65.05
2019-02-20T00:18:56.702Z,64.72
2019-02-20T00:21:24.102Z,64.51
2019-02-20T00:23:51.565Z,64.31
2019-02-20T00:26:20.214Z,64.06
2019-02-20T00:28:47.601Z,63.85
2019-02-20T00:31:15.022Z,63.80
2019-02-20T00:33:42.435Z,63.93
2019-02-20T00:36:09.947Z,64.18
2019-02-20T00:38:37.504Z,64.37
2019-02-20T00:41:04.955Z,64.43
2019-02-20T00:43:32.824Z,64.36
2019-02-20T00:46:02.726Z,64.60
2019-02-20T00:48:36.864Z,64.93
2019-02-20T00:51:04.803Z,65.03
2019-02-20T00:53:34.314Z,65.21
2019-02-20T00:56:01.745Z,65.44
2019-02-20T00:58:29.164Z,65.83
2019-02-20T01:00:56.554Z,65.97
2019-02-20T01:03:24.669Z,65.96
2019-02-20T01:05:52.081Z,65.99
2019-02-20T01:08:19.665Z,66.20
2019-02-20T01:10:47.081Z,65.92
2019-02-20T01:13:14.492Z,65.34
2019-02-20T01:15:41.925Z,65.26
2019-02-20T01:18:09.399Z,65.26
2019-02-20T01:20:36.880Z,65.25
2019-02-20T01:23:04.274Z,65.18
2019-02-20T01:25:31.712Z,64.89
2019-02-20T01:27:59.094Z,64.88
2019-02-20T01:30:26.534Z,65.10
2019-02-20T01:32:53.961Z,65.36
2019-02-20T01:35:21.430Z,65.62
2019-02-20T01:37:48.989Z,66.00
2019-02-20T01:40:16.383Z,66.30
2019-02-20T01:42:43.871Z,66.30
2019-02-20T01:45:11.326Z,66.47
2019-02-20T01:47:38.732Z,66.54
2019-02-20T01:50:06.231Z,66.68
2019-02-20T01:52:33.639Z,66.90
2019-02-20T01:55:01.101Z,67.03
2019-02-20T01:57:28.559Z,66.98
2019-02-20T01:59:56.145Z,66.91
2019-02-20T02:02:23.599Z,66.90
2019-02-20T02:04:51.407Z,67.07
2019-02-20T02:07:18.812Z,67.31
2019-02-20T02:09:46.283Z,67.66
2019-02-20T02:12:13.712Z,68.38
2019-02-20T02:14:41.139Z,68.69
2019-02-20T02:17:08.568Z,68.78
2019-02-20T02:19:35.987Z,68.80
2019-02-20T02:22:03.414Z,68.76
2019-02-20T02:24:30.839Z,68.67
2019-02-20T02:26:58.726Z,68.35
2019-02-20T02:29:26.110Z,68.09
2019-02-20T02:31:53.541Z,67.95
2019-02-20T02:34:21.947Z,67.96
2019-02-20T02:36:49.508Z,68.23
2019-02-20T02:39:17.013Z,68.16
2019-02-20T02:41:44.910Z,67.83
2019-02-20T02:44:11.941Z,67.66
2019-02-20T02:46:39.395Z,67.59
2019-02-20T02:49:07.040Z,67.19
2019-02-20T02:51:34.421Z,67.24
2019-02-20T02:54:01.983Z,67.12
2019-02-20T02:56:29.385Z,66.94
2019-02-20T02:58:56.800Z,66.64
2019-02-20T03:01:24.245Z,66.65
2019-02-20T03:03:51.648Z,66.29
2019-02-20T03:06:19.059Z,66.18
2019-02-20T03:08:46.471Z,66.76
2019-02-20T03:11:13.865Z,66.54
2019-02-20T03:13:41.433Z,66.24
2019-02-20T03:16:08.819Z,66.29
2019-02-20T03:18:36.346Z,66.44
2019-02-20T03:21:03.781Z,66.65
2019-02-20T03:23:39.799Z,66.75
2019-02-20T03:25:58.624Z,66.88
2019-02-20T03:28:26.048Z,66.95
2019-02-20T03:30:53.467Z,67.14
2019-02-20T03:33:21.047Z,67.27
2019-02-20T03:35:48.454Z,67.19
2019-02-20T03:38:15.873Z,67.50
2019-02-20T03:40:43.271Z,67.60
2019-02-20T03:43:10.715Z,67.66
2019-02-20T03:45:38.229Z,67.53
2019-02-20T03:48:05.632Z,67.74
2019-02-20T03:50:33.027Z,67.84
2019-02-20T03:53:00.718Z,67.60
2019-02-20T03:55:28.122Z,67.99
2019-02-20T03:57:55.524Z,68.05
2019-02-20T04:00:22.960Z,68.05
2019-02-20T04:02:50.403Z,68.24
2019-02-20T04:05:17.846Z,68.50
2019-02-20T04:07:45.249Z,68.60
2019-02-20T04:10:13.020Z,68.44
2019-02-20T04:12:40.616Z,68.43
2019-02-20T04:15:08.054Z,68.60
2019-02-20T04:17:35.537Z,68.60
2019-02-20T04:20:02.928Z,68.74
2019-02-20T04:22:30.343Z,68.86
2019-02-20T04:24:57.757Z,68.90
2019-02-20T04:27:25.162Z,68.87
2019-02-20T04:29:52.645Z,68.93
2019-02-20T04:32:20.069Z,68.81
2019-02-20T04:34:47.490Z,68.71
2019-02-20T04:37:14.990Z,68.69
2019-02-20T04:39:43.244Z,68.84
2019-02-20T04:42:11.100Z,69.05
2019-02-20T04:44:38.513Z,69.31
2019-02-20T04:47:06.050Z,69.40
2019-02-20T04:49:33.436Z,69.48
2019-02-20T04:52:01.099Z,69.65
2019-02-20T04:54:28.499Z,69.65
2019-02-20T04:56:56.079Z,69.68
2019-02-20T04:59:23.468Z,69.83
2019-02-20T05:01:50.884Z,69.68
2019-02-20T05:04:18.315Z,69.59
2019-02-20T05:06:45.717Z,69.64
2019-02-20T05:09:13.111Z,69.56
2019-02-20T05:11:40.525Z,69.35
2019-02-20T05:14:07.961Z,69.34
2019-02-20T05:16:35.385Z,69.45
2019-02-20T05:19:02.994Z,69.55
2019-02-20T05:21:30.396Z,69.71
2019-02-20T05:23:57.780Z,69.73
2019-02-20T05:26:25.219Z,69.75
2019-02-20T05:28:52.615Z,69.81
2019-02-20T05:31:20.087Z,69.69
2019-02-20T05:33:47.529Z,69.77
2019-02-20T05:36:14.954Z,69.73
2019-02-20T05:38:42.671Z,69.61
2019-02-20T05:41:10.113Z,69.52
2019-02-20T05:43:37.548Z,69.38
2019-02-20T05:46:04.988Z,69.32
2019-02-20T05:48:32.429Z,69.34
2019-02-20T05:50:59.823Z,69.29
2019-02-20T05:53:27.299Z,69.48
2019-02-20T05:55:54.717Z,69.73
2019-02-20T05:58:22.142Z,69.86
2019-02-20T06:00:49.973Z,69.89
2019-02-20T06:03:17.355Z,69.78
2019-02-20T06:05:44.801Z,69.89
2019-02-20T06:08:12.206Z,69.85
2019-02-20T06:10:39.601Z,69.77
2019-02-20T06:13:07.253Z,69.76
2019-02-20T06:15:34.648Z,69.90
2019-02-20T06:18:02.058Z,69.95
2019-02-20T06:20:29.456Z,69.95
2019-02-20T06:22:56.866Z,70.06
2019-02-20T06:25:24.273Z,70.23
2019-02-20T06:27:51.694Z,70.36
2019-02-20T06:30:19.106Z,70.20
2019-02-20T06:32:46.511Z,70.11
2019-02-20T06:35:13.964Z,70.06
2019-02-20T06:37:41.367Z,69.95
2019-02-20T06:40:08.785Z,69.72
2019-02-20T06:42:36.945Z,69.61
2019-02-20T06:45:05.032Z,69.75
2019-02-20T06:47:32.475Z,69.75
2019-02-20T06:50:01.194Z,69.39
2019-02-20T06:52:27.397Z,69.25
2019-02-20T06:54:54.806Z,69.09
2019-02-20T06:57:22.612Z,68.79
2019-02-20T06:59:50.174Z,68.30
2019-02-20T07:02:17.582Z,67.83
2019-02-20T07:07:46.573Z,65.10
2019-02-20T07:10:19.823Z,64.89
2019-02-20T07:12:48.140Z,64.58
2019-02-20T07:15:35.162Z,64.48
2019-02-20T07:18:05.200Z,64.39
2019-02-20T07:20:42.028Z,63.60
2019-02-20T07:26:24.866Z,59.55
2019-02-20T07:29:05.907Z,59.79
2019-02-20T07:31:33.314Z,59.59
2019-02-20T07:34:00.863Z,59.03
2019-02-20T07:36:28.315Z,58.06
2019-02-20T07:38:55.949Z,57.72
2019-02-20T07:41:23.510Z,57.52
2019-02-20T07:43:50.923Z,57.14
2019-02-20T07:46:18.366Z,56.33
2019-02-20T07:48:45.800Z,55.26
2019-02-20T07:51:14.867Z,54.84
2019-02-20T07:53:40.770Z,54.34
2019-02-20T07:56:08.280Z,54.46
2019-02-20T07:58:35.667Z,54.00
2019-02-20T08:01:03.123Z,53.03
2019-02-20T08:03:30.550Z,51.94
2019-02-20T08:05:58.001Z,51.41
2019-02-20T08:08:25.465Z,51.17
2019-02-20T08:10:52.881Z,50.98
2019-02-20T08:13:20.361Z,51.09
2019-02-20T08:15:47.763Z,50.96
2019-02-20T08:18:15.240Z,49.95
2019-02-20T08:20:42.862Z,48.63
2019-02-20T08:23:10.250Z,47.73
2019-02-20T08:25:37.773Z,47.84
2019-02-20T08:28:05.220Z,48.57
2019-02-20T08:30:32.798Z,48.12
2019-02-20T08:33:00.202Z,47.75
2019-02-20T08:35:27.635Z,47.70
2019-02-20T08:37:55.083Z,47.42
2019-02-20T08:40:22.492Z,46.75
2019-02-20T08:42:49.915Z,46.12
2019-02-20T08:45:17.318Z,45.45
2019-02-20T08:47:44.782Z,45.13
2019-02-20T08:50:13.022Z,44.54
2019-02-20T08:52:40.443Z,44.39
2019-02-20T08:55:07.865Z,44.72
2019-02-20T08:57:34.805Z,44.98
2019-02-20T09:00:02.262Z,44.70
2019-02-20T09:02:29.987Z,43.78
2019-02-20T09:04:57.003Z,42.99
2019-02-20T09:07:24.549Z,42.25
2019-02-20T09:09:51.964Z,42.25
2019-02-20T09:12:19.454Z,41.78
2019-02-20T09:14:46.992Z,41.58
2019-02-20T09:17:14.512Z,41.77
2019-02-20T09:19:42.646Z,42.02
2019-02-20T09:22:10.050Z,42.25
2019-02-20T09:24:37.465Z,42.14
2019-02-20T09:27:04.898Z,41.88
2019-02-20T09:29:32.351Z,41.39
2019-02-20T09:31:59.779Z,40.71
2019-02-20T09:34:27.216Z,40.42
2019-02-20T09:36:54.653Z,39.99
2019-02-20T09:39:33.085Z,39.87
2019-02-20T09:42:00.546Z,39.51
2019-02-20T09:44:28.418Z,38.37
2019-02-20T09:46:55.829Z,37.68
2019-02-20T09:49:23.287Z,36.78
2019-02-20T09:51:50.755Z,36.27
2019-02-20T09:54:18.219Z,35.82
2019-02-20T09:56:45.700Z,35.28
2019-02-20T09:59:13.102Z,34.99
2019-02-20T10:01:40.601Z,34.79
2019-02-20T10:04:08.016Z,34.45
2019-02-20T10:06:35.439Z,34.49
2019-02-20T10:09:02.882Z,34.07
2019-02-20T10:11:30.302Z,34.26
2019-02-20T10:13:57.717Z,34.60
2019-02-20T10:16:25.122Z,34.44
2019-02-20T10:18:52.529Z,34.90
2019-02-20T10:21:19.951Z,34.51
2019-02-20T10:23:47.501Z,34.01
2019-02-20T10:26:15.619Z,33.62
2019-02-20T10:28:43.039Z,33.49
2019-02-20T10:31:10.461Z,33.21
2019-02-20T10:33:37.919Z,33.00
2019-02-20T10:36:05.325Z,33.24
2019-02-20T10:38:32.955Z,33.65
2019-02-20T10:41:00.430Z,34.15
2019-02-20T10:43:27.885Z,34.00
2019-02-20T10:45:55.293Z,33.61
2019-02-20T10:48:22.704Z,33.54
2019-02-20T10:50:50.114Z,33.03
2019-02-20T10:53:18.452Z,32.87
2019-02-20T10:55:45.415Z,33.12
2019-02-20T10:58:12.359Z,32.95
2019-02-20T11:00:39.456Z,32.65
2019-02-20T11:03:06.446Z,32.16
2019-02-20T11:05:33.505Z,31.54
2019-02-20T11:08:00.356Z,31.11
2019-02-20T11:10:27.323Z,31.40
2019-02-20T11:12:54.400Z,31.09
2019-02-20T11:15:21.436Z,30.61
2019-02-20T11:17:48.880Z,29.36
2019-02-20T11:20:16.454Z,29.00
2019-02-20T11:22:43.457Z,28.47
2019-02-20T11:25:10.854Z,28.05
2019-02-20T11:27:39.471Z,27.39
2019-02-20T11:30:08.175Z,26.96
2019-02-20T11:32:35.611Z,26.58
2019-02-20T11:35:02.835Z,25.98
2019-02-20T11:37:29.792Z,25.62
2019-02-20T11:39:56.736Z,25.15
2019-02-20T11:42:23.674Z,24.86
2019-02-20T11:44:51.090Z,24.75
2019-02-20T11:47:18.915Z,25.02
2019-02-20T11:49:46.351Z,24.98
2019-02-20T11:52:13.774Z,24.74
2019-02-20T11:54:41.213Z,24.46
2019-02-20T11:57:08.671Z,24.10
2019-02-20T11:59:35.965Z,23.51
2019-02-20T12:02:03.440Z,22.91
2019-02-20T12:04:31.963Z,22.87
2019-02-20T12:06:59.399Z,22.42
2019-02-20T12:09:26.855Z,22.21
2019-02-20T12:11:54.275Z,21.92
2019-02-20T12:14:24.287Z,21.98
2019-02-20T12:16:50.323Z,21.68
2019-02-20T12:19:17.738Z,21.39
2019-02-20T12:21:45.140Z,21.34
2019-02-20T12:24:12.648Z,21.42
2019-02-20T12:26:40.055Z,21.09
2019-02-20T12:29:07.500Z,20.63
2019-02-20T12:31:34.911Z,20.45
2019-02-20T12:34:02.673Z,20.59
2019-02-20T12:36:30.079Z,20.74
2019-02-20T12:38:57.545Z,21.26
2019-02-20T12:41:25.020Z,21.32
2019-02-20T12:43:52.459Z,21.05
2019-02-20T12:46:19.965Z,20.59
2019-02-20T12:48:47.384Z,20.07
2019-02-20T12:51:14.831Z,19.68
2019-02-20T12:53:43.614Z,19.79
2019-02-20T12:56:10.303Z,20.16
2019-02-20T12:58:38.387Z,19.98
2019-02-20T13:01:04.744Z,20.65
2019-02-20T13:05:59.572Z,21.04
2019-02-20T13:08:27.011Z,20.52
2019-02-20T13:10:54.501Z,19.90
2019-02-20T13:13:21.927Z,19.55
2019-02-20T13:15:49.384Z,19.68
2019-02-20T13:18:16.887Z,20.21
2019-02-20T13:20:44.237Z,20.30
2019-02-20T13:23:11.662Z,20.70
2019-02-20T13:25:39.198Z,20.54
2019-02-20T13:30:40.501Z,19.93
2019-02-20T13:33:08.069Z,19.76
2019-02-20T13:35:35.648Z,19.46
2019-02-20T13:38:03.206Z,19.02
2019-02-20T13:40:30.612Z,18.92
2019-02-20T13:42:58.048Z,18.68
2019-02-20T13:45:25.648Z,18.38
2019-02-20T13:47:53.082Z,17.79
2019-02-20T13:50:20.572Z,17.65
2019-02-20T13:52:52.221Z,17.28
2019-02-20T13:55:15.457Z,16.98
2019-02-20T13:57:42.388Z,16.49
2019-02-20T14:00:09.807Z,15.79
2019-02-20T14:02:37.210Z,15.17
2019-02-20T14:05:05.501Z,14.54
2019-02-20T14:07:32.998Z,14.06
2019-02-20T14:10:00.413Z,13.82
2019-02-20T14:12:27.434Z,13.61
2019-02-20T14:14:54.387Z,13.38
2019-02-20T14:17:26.649Z,13.53
2019-02-20T14:19:48.419Z,13.70
2019-02-20T14:22:15.468Z,13.41
2019-02-20T14:24:42.445Z,13.12
2019-02-20T14:27:11.077Z,13.13
2019-02-20T14:29:37.049Z,13.37
2019-02-20T14:32:04.066Z,13.44
2019-02-20T14:34:31.006Z,13.30
2019-02-20T14:36:57.950Z,13.28
2019-02-20T14:39:24.952Z,13.40
2019-02-20T14:41:51.949Z,13.47
2019-02-20T14:44:18.893Z,13.48
2019-02-20T14:46:45.865Z,13.50
2019-02-20T14:49:13.499Z,13.69
2019-02-20T14:51:40.957Z,13.81
2019-02-20T14:54:08.033Z,14.17
2019-02-20T14:56:34.989Z,14.24
2019-02-20T14:59:01.936Z,13.93
2019-02-20T15:01:28.899Z,14.06
2019-02-20T15:03:55.900Z,14.12
2019-02-20T15:06:23.182Z,14.16
2019-02-20T15:08:50.634Z,14.25
2019-02-20T15:11:18.063Z,14.26
2019-02-20T15:13:45.480Z,14.01
2019-02-20T15:16:12.911Z,13.96
2019-02-20T15:18:40.034Z,13.93
2019-02-20T15:21:07.477Z,13.99
2019-02-20T15:23:34.641Z,14.28
2019-02-20T15:26:01.587Z,14.12
2019-02-20T15:28:28.538Z,13.75
2019-02-20T15:30:55.496Z,13.61
2019-02-20T15:33:24.012Z,13.70
2019-02-20T15:35:49.837Z,14.05
2019-02-20T15:38:17.046Z,14.38
2019-02-20T15:40:44.046Z,14.72
2019-02-20T15:43:11.083Z,15.02
2019-02-20T15:45:38.083Z,15.37
2019-02-20T15:48:05.546Z,15.49
2019-02-20T15:50:32.953Z,15.56
2019-02-20T15:53:00.382Z,15.58
2019-02-20T15:55:27.992Z,15.43
2019-02-20T15:57:55.408Z,15.39
2019-02-20T16:00:22.933Z,15.83
2019-02-20T16:02:50.363Z,16.04
2019-02-20T16:05:17.820Z,16.30
2019-02-20T16:07:45.303Z,16.78
2019-02-20T16:10:12.501Z,17.21
2019-02-20T16:12:39.988Z,17.51
2019-02-20T16:15:07.085Z,17.94
2019-02-20T16:17:34.766Z,18.75
2019-02-20T16:20:02.089Z,19.57
2019-02-20T16:22:29.603Z,20.53
2019-02-20T16:24:57.090Z,21.20
2019-02-20T16:27:24.063Z,21.87
2019-02-20T16:29:51.525Z,22.40
2019-02-20T16:32:19.095Z,23.09
2019-02-20T16:34:46.912Z,23.79
2019-02-20T16:37:14.316Z,25.03
2019-02-20T16:39:41.798Z,26.44
2019-02-20T16:42:09.317Z,28.05
2019-02-20T16:44:36.751Z,29.20
2019-02-20T16:47:04.159Z,30.36
2019-02-20T16:49:31.642Z,31.55
2019-02-20T16:51:59.123Z,32.27
2019-02-20T16:54:27.526Z,32.98
2019-02-20T16:56:54.996Z,33.56
2019-02-20T16:59:22.508Z,34.03
2019-02-20T17:01:50.007Z,36.54
2019-02-20T17:04:17.435Z,37.81
2019-02-20T17:06:44.886Z,37.12
2019-02-20T17:09:12.539Z,37.39
2019-02-20T17:11:40.091Z,37.33
2019-02-20T17:14:07.561Z,37.52
2019-02-20T17:16:35.024Z,37.90
2019-02-20T17:19:02.463Z,38.18
2019-02-20T17:21:29.903Z,38.45
2019-02-20T17:23:57.325Z,38.47
2019-02-20T17:26:25.191Z,38.51
2019-02-20T17:28:52.612Z,38.63
2019-02-20T17:31:20.495Z,38.89
2019-02-20T17:33:48.044Z,39.07
2019-02-20T17:36:15.485Z,39.37
2019-02-20T17:38:43.079Z,39.64
2019-02-20T17:41:10.496Z,39.85
2019-02-20T17:43:38.051Z,40.03
2019-02-20T17:46:05.532Z,40.40
2019-02-20T17:48:32.966Z,40.81
2019-02-20T17:51:00.435Z,41.19
2019-02-20T17:53:27.903Z,41.64
2019-02-20T17:55:55.312Z,42.34
2019-02-20T17:58:22.755Z,43.07
2019-02-20T18:00:50.304Z,43.41
2019-02-20T18:03:17.868Z,43.52
2019-02-20T18:05:45.393Z,43.92
2019-02-20T18:08:12.842Z,44.38
2019-02-20T18:10:40.371Z,45.03
2019-02-20T18:13:07.852Z,45.13
2019-02-20T18:15:35.363Z,45.31
2019-02-20T18:18:02.821Z,45.74
2019-02-20T18:20:30.305Z,47.08
2019-02-20T18:22:57.745Z,47.75
2019-02-20T18:25:25.236Z,48.00
2019-02-20T18:27:52.825Z,48.23
2019-02-20T18:30:20.397Z,48.74
2019-02-20T18:32:47.835Z,49.16
2019-02-20T18:35:16.093Z,49.72
2019-02-20T18:37:43.587Z,50.23
2019-02-20T18:40:11.119Z,50.30
2019-02-20T18:42:38.655Z,50.33
2019-02-20T18:45:06.145Z,50.65
2019-02-20T18:47:33.704Z,50.90
2019-02-20T18:50:01.187Z,51.18
2019-02-20T18:52:31.893Z,51.52
2019-02-20T18:55:05.629Z,51.88
2019-02-20T18:57:26.766Z,52.29
2019-02-20T18:59:54.190Z,52.45
2019-02-20T19:02:21.696Z,52.63
2019-02-20T19:04:49.188Z,52.98
2019-02-20T19:07:16.596Z,53.06
2019-02-20T19:09:44.168Z,52.98
2019-02-20T19:12:18.454Z,53.12
2019-02-20T19:14:46.098Z,53.06
2019-02-20T19:17:24.491Z,53.23
2019-02-20T19:23:20.277Z,53.90
2019-02-20T19:26:09.239Z,53.32
2019-02-20T19:28:44.312Z,53.23
2019-02-20T19:31:30.195Z,53.12
2019-02-20T19:34:04.253Z,53.23
2019-02-20T19:36:51.647Z,53.60
2019-02-20T19:39:20.931Z,54.02
2019-02-20T19:42:00.312Z,54.45
2019-02-20T19:44:31.793Z,54.68
2019-02-20T19:47:07.503Z,54.92
2019-02-20T19:49:50.760Z,55.10
2019-02-20T19:52:27.018Z,55.13
2019-02-20T19:55:01.827Z,55.33
2019-02-20T19:57:59.003Z,55.35
2019-02-20T20:00:30.863Z,55.71
2019-02-20T20:03:06.559Z,56.26
2019-02-20T20:05:54.498Z,56.28
2019-02-20T20:08:32.935Z,56.40
2019-02-20T20:14:04.584Z,57.73
2019-02-20T20:16:33.801Z,57.54
2019-02-20T20:19:13.734Z,57.84
2019-02-20T20:21:47.367Z,58.33
2019-02-20T20:27:28.586Z,60.26
2019-02-20T20:30:09.762Z,60.01
2019-02-20T20:32:56.025Z,60.39
2019-02-20T20:38:31.991Z,61.30
2019-02-20T20:41:05.075Z,60.79
2019-02-20T20:46:46.268Z,60.89
2019-02-20T20:49:19.043Z,60.31
2019-02-20T20:55:00.788Z,61.09
2019-02-20T20:57:33.121Z,60.60
2019-02-20T21:00:12.185Z,60.82
2019-02-20T21:02:40.199Z,60.95
2019-02-20T21:05:19.401Z,60.96
2019-02-20T21:07:51.397Z,60.32
2019-02-20T21:10:34.322Z,60.19
2019-02-20T21:13:24.251Z,60.39
2019-02-20T21:18:58.826Z,60.63
2019-02-20T21:24:44.707Z,59.25
2019-02-20T21:30:20.634Z,58.82
2019-02-20T21:32:52.650Z,58.49
2019-02-20T21:35:20.295Z,58.47
2019-02-20T21:37:56.191Z,58.79
2019-02-20T21:40:27.234Z,59.30
2019-02-20T21:45:56.868Z,60.04
2019-02-20T21:48:29.977Z,59.74
2019-02-20T21:51:03.026Z,59.86
2019-02-20T21:53:34.777Z,60.04
2019-02-20T21:56:02.631Z,60.05
2019-02-20T21:58:33.231Z,60.19
2019-02-20T22:01:23.859Z,60.35
2019-02-20T22:07:05.951Z,59.81
2019-02-20T22:09:34.143Z,59.56
2019-02-20T22:12:16.922Z,59.76
2019-02-20T22:14:47.330Z,59.93
2019-02-20T22:17:19.522Z,60.10
2019-02-20T22:23:05.296Z,59.74
2019-02-20T22:25:44.204Z,59.06
2019-02-20T22:31:35.896Z,59.38
2019-02-20T22:34:16.603Z,59.55
2019-02-20T22:36:55.846Z,59.96
2019-02-20T22:39:46.705Z,60.11
2019-02-20T22:42:38.578Z,60.22
2019-02-20T22:45:19.594Z,60.20
2019-02-20T22:50:57.827Z,60.39
2019-02-20T22:56:43.317Z,60.21
2019-02-20T22:59:17.461Z,60.17
2019-02-20T23:04:40.561Z,59.82
2019-02-20T23:07:24.752Z,59.51
2019-02-20T23:09:58.709Z,59.62
2019-02-20T23:12:27.839Z,59.69
2019-02-20T23:14:57.857Z,59.77
2019-02-20T23:17:27.176Z,59.78
2019-02-20T23:19:52.898Z,59.97
2019-02-20T23:22:20.288Z,60.18
2019-02-20T23:24:47.694Z,60.01
2019-02-20T23:27:15.129Z,59.81
2019-02-20T23:29:42.724Z,60.18
2019-02-20T23:32:10.108Z,60.49
2019-02-20T23:34:37.527Z,60.62
2019-02-20T23:37:04.935Z,60.77
2019-02-20T23:39:32.337Z,60.80
2019-02-20T23:41:59.748Z,60.62
2019-02-20T23:44:27.183Z,60.56
2019-02-20T23:46:54.717Z,60.37
2019-02-20T23:49:22.190Z,60.26
2019-02-20T23:51:49.651Z,60.31
2019-02-20T23:54:17.096Z,60.37
2019-02-20T23:56:44.515Z,60.33
2019-02-20T23:59:13.794Z,60.35
